Time;durP1;ratioP1;P1;durP2;ratioP2;P2;SDS_P1;SDS_P2;PMS_P1;PMS_P2;Temp;Humidity;BMP_temperature;BMP_pressure;BME280_temperature;BME280_humidity;BME280_pressure;Samples;Min_cycle;Max_cycle;Signal;HPM_P1;HPM_P2
2022/08/21 00:00:38;;;;;;;31.33;15.30;;;;;;;30.61;76.63;97740.63;5026757;28;20053;-72
2022/08/21 00:03:51;;;;;;;24.67;13.43;;;;;;;30.68;76.69;97736.38;5013213;28;20496;-71
2022/08/21 00:06:53;;;;;;;23.75;13.82;;;;;;;30.64;76.68;97737.09;5026216;28;20802;-72
2022/08/21 00:10:04;;;;;;;24.73;13.90;;;;;;;30.63;76.82;97743.81;5017547;28;20046;-71
2022/08/21 00:13:13;;;;;;;28.70;14.45;;;;;;;30.62;76.28;97733.13;5006187;28;20115;-72
2022/08/21 00:16:23;;;;;;;25.00;15.27;;;;;;;30.64;76.77;97741.84;5006863;28;20510;-71
2022/08/21 00:19:33;;;;;;;24.83;14.00;;;;;;;30.72;76.73;97738.00;5008153;28;20038;-72
2022/08/21 00:22:34;;;;;;;26.60;14.43;;;;;;;30.71;76.78;97732.88;5006854;28;20386;-72
2022/08/21 00:25:44;;;;;;;28.50;14.38;;;;;;;30.55;77.32;97736.56;5007420;28;20042;-72
2022/08/21 00:28:48;;;;;;;30.63;14.07;;;;;;;30.61;76.86;97729.56;5007020;28;20038;-72
2022/08/21 00:31:58;;;;;;;25.52;14.45;;;;;;;30.67;76.72;97732.81;5007342;28;20037;-71
2022/08/21 00:35:00;;;;;;;30.63;15.50;;;;;;;30.64;77.05;97733.53;5025817;28;20037;-71
2022/08/21 00:38:10;;;;;;;25.13;14.13;;;;;;;30.66;76.99;97733.19;5007291;28;20471;-72
2022/08/21 00:41:16;;;;;;;21.55;14.35;;;;;;;30.67;77.14;97735.59;5010318;28;20042;-72
2022/08/21 00:44:45;;;;;;;27.90;14.57;;;;;;;30.68;76.72;97742.69;4999785;28;20050;-71
2022/08/21 00:47:54;;;;;;;26.13;14.73;;;;;;;30.66;76.65;97747.03;5007584;28;20034;-72
2022/08/21 00:51:11;;;;;;;24.95;15.32;;;;;;;30.71;76.40;97738.41;5007073;28;20042;-71
2022/08/21 00:54:14;;;;;;;25.60;15.05;;;;;;;30.71;76.81;97741.19;5007364;28;20053;-72
2022/08/21 00:57:32;;;;;;;23.63;14.60;;;;;;;30.69;77.17;97747.09;5004995;28;20052;-72
2022/08/21 01:00:38;;;;;;;23.35;15.10;;;;;;;30.75;76.75;97753.91;5007528;28;20053;-72
2022/08/21 01:03:47;;;;;;;27.20;16.38;;;;;;;30.80;76.87;97752.78;5005787;28;20069;-72
2022/08/21 01:06:51;;;;;;;24.88;15.13;;;;;;;30.84;76.33;97756.44;4992672;28;20150;-72
2022/08/21 01:09:59;;;;;;;29.13;15.20;;;;;;;30.82;76.80;97762.34;5015695;28;20077;-72
2022/08/21 01:13:04;;;;;;;25.33;15.00;;;;;;;30.80;77.20;97756.38;5027098;28;20496;-72
2022/08/21 01:16:15;;;;;;;27.70;14.77;;;;;;;30.96;76.44;97763.75;5006181;28;20046;-72
2022/08/21 01:19:20;;;;;;;29.70;15.65;;;;;;;31.07;76.45;97773.03;5008153;28;20129;-72
2022/08/21 01:22:28;;;;;;;30.67;15.30;;;;;;;31.04;75.96;97771.00;5004497;28;20133;-72
2022/08/21 01:25:31;;;;;;;31.58;17.70;;;;;;;31.15;76.04;97771.16;5005393;28;20042;-72
2022/08/21 01:28:46;;;;;;;32.30;16.13;;;;;;;31.15;76.19;97774.72;5005464;28;20767;-71
2022/08/21 01:31:48;;;;;;;31.08;16.40;;;;;;;31.30;75.58;97784.06;5005235;28;20393;-72
2022/08/21 01:34:52;;;;;;;29.52;16.33;;;;;;;31.32;75.58;97783.66;4991011;28;20042;-72
2022/08/21 01:38:01;;;;;;;28.90;17.60;;;;;;;31.36;75.68;97790.06;5005462;28;20373;-72
2022/08/21 01:41:10;;;;;;;29.42;17.30;;;;;;;31.46;74.83;97794.16;5044439;28;20049;-72
2022/08/21 01:44:13;;;;;;;36.92;19.25;;;;;;;31.46;75.01;97794.97;5045854;28;20051;-72
2022/08/21 01:47:29;;;;;;;34.92;18.48;;;;;;;31.34;74.66;97804.31;5044493;28;20053;-72
2022/08/21 01:50:39;;;;;;;31.63;18.30;;;;;;;31.37;74.90;97803.53;5045017;28;20053;-72
2022/08/21 01:53:56;;;;;;;35.13;17.63;;;;;;;31.45;74.28;97807.22;5044750;28;20037;-72
2022/08/21 01:56:59;;;;;;;34.38;17.23;;;;;;;31.65;74.56;97807.91;5044652;28;20056;-72
2022/08/21 02:00:13;;;;;;;26.40;16.23;;;;;;;31.72;75.39;97804.41;5033622;28;20139;-72
2022/08/21 02:03:22;;;;;;;29.65;18.08;;;;;;;31.88;73.79;97815.34;5044317;28;20048;-72
2022/08/21 02:06:35;;;;;;;35.35;18.70;;;;;;;31.92;73.28;97819.75;5045627;28;20045;-72
2022/08/21 02:09:37;;;;;;;29.90;18.85;;;;;;;31.93;72.86;97820.53;5037430;28;20063;-72
2022/08/21 02:12:53;;;;;;;44.60;23.65;;;;;;;31.90;72.97;97822.09;5026778;28;20041;-73
2022/08/21 02:15:49;;;;;;;41.75;22.77;;;;;;;32.12;72.91;97822.38;5006619;28;20042;-72
2022/08/21 02:18:58;;;;;;;46.03;26.38;;;;;;;32.27;71.67;97826.09;5005788;28;20115;-72
2022/08/21 02:22:07;;;;;;;44.28;24.52;;;;;;;32.60;71.20;97832.81;5004755;28;20452;-72
2022/08/21 02:25:09;;;;;;;45.35;27.50;;;;;;;32.67;69.87;97828.13;5006758;28;20053;-73
2022/08/21 02:28:21;;;;;;;45.55;26.88;;;;;;;32.68;69.42;97828.94;5010099;28;20072;-72
2022/08/21 02:31:32;;;;;;;43.45;25.35;;;;;;;32.66;70.39;97834.09;5010089;28;20049;-72
2022/08/21 02:34:35;;;;;;;;;;;;;;;32.61;69.41;97831.66;5010132;28;20038;-72
2022/08/21 02:37:53;;;;;;;42.17;25.65;;;;;;;32.94;69.34;97834.34;4997160;28;20103;-72
2022/08/21 02:40:57;;;;;;;44.70;23.65;;;;;;;33.00;68.45;97843.13;5025063;28;20049;-72
2022/08/21 02:44:06;;;;;;;42.28;24.35;;;;;;;33.06;67.65;97840.78;5017712;28;20049;-72
2022/08/21 02:47:08;;;;;;;37.42;22.35;;;;;;;32.98;67.40;97842.69;5028787;28;20412;-72
2022/08/21 02:50:22;;;;;;;38.05;21.52;;;;;;;32.96;67.89;97843.06;5033043;28;20037;-72
2022/08/21 02:53:27;;;;;;;38.22;22.60;;;;;;;33.04;68.45;97848.69;5032238;28;20045;-72
2022/08/21 02:56:36;;;;;;;45.60;21.52;;;;;;;33.29;68.71;97846.94;5029547;28;20060;-73
2022/08/21 02:59:46;;;;;;;40.70;21.85;;;;;;;33.12;66.43;97847.59;5028417;28;20052;-72
2022/08/21 03:02:49;;;;;;;40.45;20.83;;;;;;;33.42;67.07;97850.19;5029103;28;20042;-72
2022/08/21 03:05:59;;;;;;;33.67;18.58;;;;;;;33.64;64.52;97845.56;5028177;28;20676;-72
2022/08/21 03:09:02;;;;;;;27.08;16.85;;;;;;;33.64;65.06;97848.34;5027150;28;20049;-72
2022/08/21 03:12:11;;;;;;;30.88;15.77;;;;;;;33.35;64.84;97848.16;5009193;28;20448;-73
2022/08/21 03:15:17;;;;;;;34.15;16.23;;;;;;;33.48;65.13;97850.63;5027560;28;20064;-72
2022/08/21 03:18:27;;;;;;;27.15;15.27;;;;;;;33.86;64.29;97854.03;5008348;28;20049;-73
2022/08/21 03:21:30;;;;;;;38.63;16.88;;;;;;;33.50;65.32;97857.38;5007849;28;20042;-71
2022/08/21 03:24:39;;;;;;;37.92;15.45;;;;;;;33.78;63.64;97857.97;5009074;28;20061;-71
2022/08/21 03:27:37;;;;;;;25.98;14.35;;;;;;;33.84;64.44;97851.66;5009034;28;20373;-70
2022/08/21 03:30:50;;;;;;;28.25;13.75;;;;;;;33.94;62.83;97861.25;5002183;28;20045;-70
2022/08/21 03:33:54;;;;;;;29.50;16.08;;;;;;;33.84;63.29;97859.19;5008113;28;20050;-71
2022/08/21 03:37:07;;;;;;;25.63;15.27;;;;;;;34.21;63.96;97858.19;5005995;28;20061;-71
2022/08/21 03:40:12;;;;;;;30.00;16.33;;;;;;;33.94;62.50;97858.44;5034658;28;20571;-71
2022/08/21 03:43:21;;;;;;;30.45;16.35;;;;;;;34.24;62.41;97862.97;5046786;28;20379;-71
2022/08/21 03:46:29;;;;;;;38.42;14.85;;;;;;;34.08;61.23;97863.28;5048936;28;20136;-71
2022/08/21 03:49:39;;;;;;;25.80;12.98;;;;;;;34.39;60.43;97863.81;5047597;28;20191;-69
2022/08/21 03:52:48;;;;;;;34.20;15.57;;;;;;;34.38;61.87;97863.00;5029859;28;20086;-71
2022/08/21 03:55:52;;;;;;;30.30;17.70;;;;;;;34.55;61.46;97871.78;5047456;28;20132;-71
2022/08/21 03:59:02;;;;;;;36.92;18.23;;;;;;;34.60;63.33;97868.63;5047218;28;20610;-71
2022/08/21 04:02:06;;;;;;;37.10;17.65;;;;;;;34.62;59.04;97872.59;5046180;28;20599;-71
2022/08/21 04:05:35;;;;;;;37.03;16.85;;;;;;;34.54;59.38;97871.00;5045686;28;20049;-71
2022/08/21 04:08:37;;;;;;;50.47;20.33;;;;;;;34.66;60.52;97869.81;5046812;28;20111;-71
2022/08/21 04:11:47;;;;;;;36.67;16.08;;;;;;;34.63;59.22;97870.63;5008575;28;20215;-71
2022/08/21 04:14:52;;;;;;;48.17;18.60;;;;;;;35.07;58.80;97870.28;5020432;28;20928;-71
2022/08/21 04:18:01;;;;;;;36.33;17.45;;;;;;;35.27;59.25;97881.88;5027841;28;20131;-71
2022/08/21 04:21:05;;;;;;;40.40;18.35;;;;;;;35.22;56.88;97875.91;5027083;28;20052;-70
2022/08/21 04:24:16;;;;;;;41.35;17.52;;;;;;;35.40;58.27;97876.66;5025847;28;20477;-71
2022/08/21 04:27:29;;;;;;;37.00;18.88;;;;;;;35.59;56.51;97881.03;5025657;28;20619;-70
2022/08/21 04:30:32;;;;;;;31.63;18.33;;;;;;;35.38;57.29;97878.28;5025033;28;20042;-69
2022/08/21 04:33:41;;;;;;;49.30;19.48;;;;;;;35.27;59.07;97879.09;5027103;28;20448;-69
2022/08/21 04:36:44;;;;;;;57.28;23.85;;;;;;;35.15;58.76;97868.28;5026408;28;20208;-69
2022/08/21 04:39:56;;;;;;;51.63;22.58;;;;;;;34.89;59.70;97881.44;5027338;28;20049;-69
2022/08/21 04:43:02;;;;;;;40.25;20.92;;;;;;;34.84;58.25;97881.84;5022979;28;20041;-70
2022/08/21 04:46:11;;;;;;;40.77;21.57;;;;;;;34.69;58.32;97878.22;5026090;28;20418;-70
2022/08/21 04:49:19;;;;;;;38.90;23.10;;;;;;;34.50;59.47;97872.97;5028733;28;20050;-69
2022/08/21 04:52:29;;;;;;;54.47;24.38;;;;;;;34.75;59.76;97880.63;5024355;28;20046;-69
2022/08/21 04:55:32;;;;;;;46.97;24.00;;;;;;;35.05;59.90;97880.25;5027070;28;20147;-70
2022/08/21 04:58:43;;;;;;;50.72;25.52;;;;;;;35.48;57.73;97871.88;5025569;28;20488;-69
2022/08/21 05:01:46;;;;;;;;;;;;;;;35.85;56.07;97873.44;5024646;28;20620;-68
2022/08/21 05:04:57;;;;;;;46.35;22.25;;;;;;;36.29;55.70;97869.28;5015492;28;20364;-69
2022/08/21 05:08:00;;;;;;;39.85;21.20;;;;;;;36.32;56.46;97874.03;5018113;28;20061;-69
2022/08/21 05:11:11;;;;;;;40.42;20.33;;;;;;;36.47;53.42;97869.16;5022795;28;20061;-69
2022/08/21 05:14:12;;;;;;;38.70;19.40;;;;;;;36.41;53.80;97863.22;5003465;28;20049;-69
2022/08/21 05:17:23;;;;;;;42.22;22.17;;;;;;;36.09;53.29;97868.13;5003961;28;20104;-69
2022/08/21 05:20:36;;;;;;;41.53;23.20;;;;;;;36.38;55.18;97878.03;5023686;28;20057;-69
2022/08/21 05:23:44;;;;;;;40.17;21.90;;;;;;;36.98;53.42;97867.66;5023157;28;20057;-70
2022/08/21 05:26:54;;;;;;;39.03;19.17;;;;;;;36.68;52.31;97873.88;5023218;28;20409;-70
2022/08/21 05:30:04;;;;;;;36.63;16.50;;;;;;;36.83;51.01;97869.75;5023373;28;20059;-70
2022/08/21 05:33:09;;;;;;;38.43;17.73;;;;;;;37.25;50.60;97867.06;5007844;28;20515;-70
2022/08/21 05:36:19;;;;;;;41.40;21.92;;;;;;;36.70;52.11;97862.28;5024690;28;20397;-70
2022/08/21 05:39:20;;;;;;;40.08;21.15;;;;;;;37.19;49.83;97868.72;5023448;28;20076;-70
2022/08/21 05:42:54;;;;;;;40.10;22.63;;;;;;;36.80;52.25;97870.59;5024178;28;20045;-70
2022/08/21 05:46:04;;;;;;;57.28;28.23;;;;;;;35.77;54.27;97871.84;5024163;28;20041;-70
2022/08/21 05:49:05;;;;;;;54.08;29.23;;;;;;;35.59;55.20;97869.06;5024018;28;20408;-70
2022/08/21 05:52:26;;;;;;;51.88;28.13;;;;;;;35.72;55.89;97869.47;4996011;28;20477;-71
2022/08/21 05:55:37;;;;;;;53.40;26.67;;;;;;;35.46;55.72;97863.91;5022707;28;20172;-70
2022/08/21 05:58:45;;;;;;;55.05;29.45;;;;;;;35.51;55.56;97873.88;5003818;28;20060;-70
2022/08/21 06:01:54;;;;;;;61.83;27.63;;;;;;;36.07;54.50;97863.75;5003868;28;20795;-70
2022/08/21 06:04:56;;;;;;;44.83;26.35;;;;;;;36.08;52.09;97861.75;5006502;28;20167;-70
2022/08/21 06:08:05;;;;;;;45.17;25.55;;;;;;;36.43;52.93;97863.59;5006418;28;20587;-70
2022/08/21 06:11:09;;;;;;;41.17;23.52;;;;;;;36.48;51.68;97853.19;5027110;28;20080;-70
2022/08/21 06:14:20;;;;;;;39.65;22.35;;;;;;;36.79;50.56;97849.41;5006574;28;20048;-70
2022/08/21 06:17:23;;;;;;;36.15;22.42;;;;;;;36.86;51.43;97853.34;5006974;28;20100;-70
2022/08/21 06:20:32;;;;;;;31.52;19.02;;;;;;;36.69;51.53;97843.91;5007061;28;20180;-69
2022/08/21 06:23:41;;;;;;;34.55;17.83;;;;;;;36.45;51.11;97849.22;5006386;28;20846;-71
2022/08/21 06:26:43;;;;;;;32.90;17.33;;;;;;;37.08;51.09;97849.19;5007168;28;20050;-70
2022/08/21 06:29:53;;;;;;;40.15;18.52;;;;;;;36.72;51.55;97838.28;5006345;28;20137;-70
2022/08/21 06:33:02;;;;;;;35.58;16.80;;;;;;;36.31;52.71;97830.56;4996263;28;20458;-72
2022/08/21 06:36:04;;;;;;;30.33;15.47;;;;;;;36.32;51.88;97842.50;5006901;28;20054;-73
2022/08/21 06:39:13;;;;;;;31.52;14.38;;;;;;;35.91;54.01;97840.31;4996973;28;20046;-73
2022/08/21 06:42:31;;;;;;;38.15;15.57;;;;;;;36.02;52.32;97841.03;5006195;28;20072;-73
2022/08/21 06:45:34;;;;;;;28.52;13.75;;;;;;;35.84;54.87;97835.53;5021885;28;20058;-73
2022/08/21 06:48:43;;;;;;;32.35;14.55;;;;;;;35.64;52.01;97837.97;5001548;28;20053;-71
2022/08/21 06:51:52;;;;;;;26.83;14.13;;;;;;;35.81;50.36;97828.75;5018205;28;20092;-70
2022/08/21 06:55:01;;;;;;;30.15;12.70;;;;;;;36.21;51.87;97828.59;5000874;28;20042;-72
2022/08/21 06:58:03;;;;;;;26.17;11.30;;;;;;;36.42;52.57;97827.69;5010990;28;20089;-71
2022/08/21 07:01:12;;;;;;;21.27;10.23;;;;;;;36.87;52.07;97819.41;5013655;28;20101;-70
2022/08/21 07:04:24;;;;;;;21.15;8.57;;;;;;;36.58;49.86;97814.00;5009033;28;20064;-71
2022/08/21 07:07:26;;;;;;;20.63;9.20;;;;;;;36.26;52.04;97808.63;4669689;28;10000561;-72
2022/08/21 07:10:36;;;;;;;21.60;9.23;;;;;;;36.24;52.12;97809.03;4999714;28;20081;-71
2022/08/21 07:13:38;;;;;;;23.13;8.45;;;;;;;35.92;51.25;97811.16;5001621;28;20762;-70
2022/08/21 07:16:47;;;;;;;22.25;9.65;;;;;;;35.81;53.95;97802.81;5001453;28;20148;-71
2022/08/21 07:19:58;;;;;;;24.95;8.18;;;;;;;35.75;52.26;97796.91;5011705;28;20823;-71
2022/08/21 07:23:02;;;;;;;21.45;8.65;;;;;;;36.23;53.27;97789.88;5006361;28;20136;-69
2022/08/21 07:26:13;;;;;;;22.45;8.45;;;;;;;36.49;52.80;97784.94;5005628;28;20124;-71
2022/08/21 07:29:15;;;;;;;15.45;8.02;;;;;;;36.46;50.65;97786.56;5006047;28;20053;-71
2022/08/21 07:32:25;;;;;;;20.60;8.43;;;;;;;36.63;52.28;97784.81;5006145;28;20054;-71
2022/08/21 07:35:33;;;;;;;16.73;8.07;;;;;;;36.72;48.55;97793.56;5006268;28;20180;-70
2022/08/21 07:38:36;;;;;;;25.42;10.05;;;;;;;37.12;48.74;97788.41;5005342;28;20469;-71
2022/08/21 07:41:46;;;;;;;32.15;9.10;;;;;;;37.00;48.93;97783.34;5005268;28;20049;-71
2022/08/21 07:44:56;;;;;;;21.73;8.82;;;;;;;37.39;48.02;97782.94;5005095;28;20057;-70
2022/08/21 07:47:58;;;;;;;20.05;8.57;;;;;;;37.15;49.84;97773.63;5006640;28;20053;-70
2022/08/21 07:51:17;;;;;;;20.45;9.82;;;;;;;37.14;48.84;97769.22;5003245;28;20053;-71
2022/08/21 07:54:13;;;;;;;16.20;8.82;;;;;;;37.06;47.58;97764.09;5004894;28;20476;-71
2022/08/21 07:57:33;;;;;;;23.52;8.80;;;;;;;37.21;47.71;97766.38;5016152;28;20493;-71
2022/08/21 08:00:36;;;;;;;23.45;7.85;;;;;;;37.02;48.22;97758.53;5025104;28;20049;-71
2022/08/21 08:03:46;;;;;;;20.85;9.55;;;;;;;37.14;48.32;97758.03;5012463;28;20053;-71
2022/08/21 08:06:49;;;;;;;19.20;9.32;;;;;;;37.34;46.13;97758.25;5024579;28;20084;-71
2022/08/21 08:09:58;;;;;;;18.13;7.53;;;;;;;37.15;45.62;97750.47;5014284;28;20666;-71
2022/08/21 08:13:02;;;;;;;19.02;8.45;;;;;;;37.20;45.18;97738.78;5004951;28;20097;-71
2022/08/21 08:16:11;;;;;;;24.92;10.70;;;;;;;37.54;45.42;97727.59;5005798;28;20049;-71
2022/08/21 08:19:12;;;;;;;17.23;7.57;;;;;;;37.43;46.05;97726.94;4991044;28;20049;-71
2022/08/21 08:22:23;;;;;;;19.00;7.60;;;;;;;37.46;46.91;97731.72;5005145;28;20045;-71
2022/08/21 08:25:27;;;;;;;13.80;6.57;;;;;;;37.53;46.43;97731.63;5004892;28;20054;-71
2022/08/21 08:28:42;;;;;;;26.17;7.95;;;;;;;37.15;44.40;97723.28;5004088;28;20129;-71
2022/08/21 08:31:50;;;;;;;22.85;8.00;;;;;;;37.14;45.36;97710.47;5003893;28;20121;-70
2022/08/21 08:34:59;;;;;;;17.10;8.10;;;;;;;37.45;46.43;97715.34;5005004;28;20046;-71
2022/08/21 08:38:04;;;;;;;19.23;8.00;;;;;;;36.87;46.21;97712.34;5003564;28;20050;-70
2022/08/21 08:41:22;;;;;;;25.02;7.85;;;;;;;37.11;46.13;97705.72;5005836;28;20065;-70
2022/08/21 08:44:30;;;;;;;16.73;8.02;;;;;;;36.84;43.89;97692.41;4997503;28;20049;-71
2022/08/21 08:47:45;;;;;;;15.88;6.70;;;;;;;36.87;47.26;97690.00;5003434;28;20120;-71
2022/08/21 08:50:58;;;;;;;21.83;8.98;;;;;;;37.08;45.20;97689.75;5004303;28;20136;-71
2022/08/21 08:54:19;;;;;;;22.27;8.80;;;;;;;37.28;45.64;97681.56;4999007;28;20049;-71
2022/08/21 08:56:55;;;;;;;25.35;7.72;;;;;;;37.04;46.21;97678.59;5006282;28;20061;-72
2022/08/21 08:59:46;;;;;;;;;;;;;;;37.10;44.90;97669.75;4956188;28;20046;-72
2022/08/21 09:02:28;;;;;;;19.40;8.07;;;;;;;37.06;45.13;97664.19;4988160;28;20357;-71
2022/08/21 09:05:44;;;;;;;20.95;10.95;;;;;;;37.00;44.70;97663.88;4988984;28;20068;-71
2022/08/21 09:09:00;;;;;;;20.20;10.68;;;;;;;37.29;45.25;97651.56;4998713;28;20050;-71
2022/08/21 09:11:57;;;;;;;22.95;10.05;;;;;;;37.32;45.23;97654.34;4990232;28;20052;-71
2022/08/21 09:15:24;;;;;;;19.67;8.23;;;;;;;36.98;44.77;97652.31;5000756;28;20133;-70
2022/08/21 09:18:24;;;;;;;15.80;8.32;;;;;;;37.18;43.74;97640.50;4987857;28;20045;-71
2022/08/21 09:21:38;;;;;;;18.10;8.90;;;;;;;36.79;44.34;97641.75;4953795;28;20488;-71
2022/08/21 09:24:39;;;;;;;20.63;8.25;;;;;;;36.74;43.86;97634.59;4985233;28;20698;-71
2022/08/21 09:27:31;;;;;;;21.30;7.53;;;;;;;36.36;44.12;97628.94;4992946;28;20073;-71
2022/08/21 09:30:14;;;;;;;25.00;8.40;;;;;;;36.77;45.09;97622.56;5024382;28;20056;-71
2022/08/21 09:33:02;;;;;;;16.85;8.73;;;;;;;36.90;45.15;97614.44;5025170;28;20080;-71
2022/08/21 09:35:54;;;;;;;24.27;11.57;;;;;;;36.91;44.85;97618.03;5024793;28;20049;-71
2022/08/21 09:38:44;;;;;;;21.33;13.13;;;;;;;36.84;45.21;97608.53;5025555;28;20049;-71
2022/08/21 09:41:37;;;;;;;26.60;13.77;;;;;;;36.82;45.89;97610.94;5007949;28;20112;-71
2022/08/21 09:44:19;;;;;;;20.67;12.70;;;;;;;36.94;45.62;97603.22;5023132;28;20758;-71
2022/08/21 09:47:16;;;;;;;29.38;12.55;;;;;;;36.63;45.39;97600.31;5005197;28;20046;-70
2022/08/21 09:49:52;;;;;;;32.30;11.60;;;;;;;36.77;46.14;97594.63;4989302;28;20095;-72
2022/08/21 09:52:58;;;;;;;28.40;11.38;;;;;;;36.57;46.61;97593.59;4993945;28;20042;-72
2022/08/21 09:59:34;;;;;;;25.65;10.85;;;;;;;36.87;46.69;97583.72;5021061;28;20526;-71
2022/08/21 10:02:38;;;;;;;17.40;10.23;;;;;;;36.95;45.69;97582.44;5044277;28;20135;-71
2022/08/21 10:05:28;;;;;;;17.05;9.13;;;;;;;36.78;46.30;97573.84;5027224;28;20053;-71
2022/08/21 10:08:09;;;;;;;19.05;9.90;;;;;;;37.13;46.49;97563.44;5044657;28;20476;-70
2022/08/21 10:11:16;;;;;;;23.20;10.15;;;;;;;36.61;45.49;97572.00;5012315;28;20042;-72
2022/08/21 10:14:03;;;;;;;16.52;10.07;;;;;;;36.72;44.51;97569.91;5019549;28;20689;-72
2022/08/21 10:17:07;;;;;;;16.25;10.82;;;;;;;36.43;46.07;97567.41;5005450;28;20045;-71
2022/08/21 10:20:08;;;;;;;24.90;11.40;;;;;;;36.30;46.41;97563.53;4990325;28;20073;-70
2022/08/21 10:23:21;;;;;;;19.63;11.02;;;;;;;36.78;46.07;97554.28;5004948;28;20591;-71
2022/08/21 10:26:38;;;;;;;18.83;10.93;;;;;;;36.83;47.46;97542.63;5005444;28;20046;-71
2022/08/21 10:29:52;;;;;;;19.35;9.63;;;;;;;36.75;50.01;97541.13;5010160;28;20050;-72
2022/08/21 10:32:53;;;;;;;;;;;;;;;36.64;48.14;97537.63;5000334;28;20046;-73
2022/08/21 10:35:59;;;;;;;19.15;10.00;;;;;;;36.97;46.46;97535.25;5005421;28;19937;-71
2022/08/21 10:38:41;;;;;;;20.92;10.15;;;;;;;36.80;45.46;97537.88;5013682;28;20045;-72
2022/08/21 10:42:17;;;;;;;27.02;12.32;;;;;;;36.78;45.58;97522.72;5000996;28;20077;-72
2022/08/21 10:45:22;;;;;;;25.15;9.45;;;;;;;36.74;46.14;97522.75;5010613;28;20132;-72
2022/08/21 10:48:21;;;;;;;20.85;10.35;;;;;;;36.71;47.74;97523.59;5015881;28;20057;-71
2022/08/21 10:51:27;;;;;;;22.10;9.90;;;;;;;36.60;47.43;97514.53;5022082;28;20041;-72
2022/08/21 10:54:50;;;;;;;24.07;9.73;;;;;;;36.90;46.94;97511.00;5021063;28;20051;-72
2022/08/21 10:57:31;;;;;;;17.58;9.55;;;;;;;36.70;46.46;97513.63;4995987;28;20069;-72
2022/08/21 11:00:57;;;;;;;18.85;9.15;;;;;;;36.78;45.77;97505.94;5027051;28;20519;-72
2022/08/21 11:04:00;;;;;;;21.45;8.35;;;;;;;36.37;47.33;97513.19;5020058;28;20136;-71
2022/08/21 11:07:18;;;;;;;24.63;8.68;;;;;;;36.03;48.42;97519.47;5026776;28;20037;-70
2022/08/21 11:09:58;;;;;;;21.75;8.07;;;;;;;36.12;48.51;97519.00;5017412;28;20080;-70
2022/08/21 11:12:54;;;;;;;16.55;7.95;;;;;;;36.45;48.86;97492.31;5007395;28;20050;-71
2022/08/21 11:16:06;;;;;;;16.52;8.02;;;;;;;35.95;49.13;97504.00;4993541;28;20107;-71
2022/08/21 11:19:29;;;;;;;17.65;8.15;;;;;;;35.98;49.27;97507.97;5022493;28;20116;-71
2022/08/21 11:22:14;;;;;;;20.20;9.27;;;;;;;36.38;47.20;97506.41;5008925;28;20045;-73
2022/08/21 11:25:20;;;;;;;18.75;9.38;;;;;;;36.38;47.72;97516.75;5014807;28;20045;-72
2022/08/21 11:28:05;;;;;;;22.98;7.53;;;;;;;36.22;48.64;97504.16;5030552;28;20053;-72
2022/08/21 11:31:13;;;;;;;21.40;6.72;;;;;;;36.29;47.41;97494.94;5027974;28;20073;-71
2022/08/21 11:34:13;;;;;;;15.60;7.25;;;;;;;36.65;48.18;97500.13;5027018;28;20099;-72
2022/08/21 11:37:32;;;;;;;19.85;6.70;;;;;;;36.44;48.05;97499.13;5027859;28;20120;-72
2022/08/21 11:40:41;;;;;;;18.77;6.93;;;;;;;36.04;48.17;97497.94;5026925;28;20569;-73
2022/08/21 11:43:45;;;;;;;19.67;8.18;;;;;;;36.04;47.87;97498.75;5027245;28;20053;-74
2022/08/21 11:47:05;;;;;;;15.25;7.07;;;;;;;36.33;47.42;97481.72;5027356;28;20045;-72
2022/08/21 11:50:28;;;;;;;20.60;7.43;;;;;;;36.10;48.33;97484.34;4995417;28;20394;-72
2022/08/21 11:53:42;;;;;;;16.83;6.78;;;;;;;36.13;48.99;97483.50;5026901;28;20064;-72
2022/08/21 11:56:44;;;;;;;15.98;5.95;;;;;;;35.95;48.44;97476.09;5025068;28;20104;-70
2022/08/21 11:59:49;;;;;;;24.58;6.97;;;;;;;35.96;48.56;97485.25;5007346;28;20065;-72
2022/08/21 12:02:33;;;;;;;17.20;7.60;;;;;;;35.65;48.46;97485.88;5007353;28;20190;-72
2022/08/21 12:05:42;;;;;;;18.20;7.10;;;;;;;36.07;47.27;97483.94;4991551;28;20859;-72
2022/08/21 12:08:34;;;;;;;22.20;6.68;;;;;;;35.82;48.06;97481.38;4990242;28;20436;-72
2022/08/21 12:11:23;;;;;;;26.48;8.02;;;;;;;35.98;47.74;97478.06;5007084;28;20057;-72
2022/08/21 12:14:16;;;;;;;21.67;6.70;;;;;;;36.15;48.39;97479.06;5014058;28;20045;-72
2022/08/21 12:17:12;;;;;;;16.63;6.55;;;;;;;35.94;48.20;97477.28;5012114;28;20472;-72
2022/08/21 12:20:23;;;;;;;19.60;6.30;;;;;;;35.87;46.75;97471.78;5012154;28;20046;-71
2022/08/21 12:23:18;;;;;;;20.52;5.50;;;;;;;35.91;47.97;97469.75;5006496;28;20034;-72
2022/08/21 12:26:11;;;;;;;14.82;5.93;;;;;;;35.85;47.54;97472.19;5007528;28;20441;-71
2022/08/21 12:29:22;;;;;;;17.85;6.25;;;;;;;35.71;49.19;97471.53;5007284;28;20428;-70
2022/08/21 12:32:24;;;;;;;13.05;5.72;;;;;;;35.72;47.54;97471.13;5006999;28;20041;-72
2022/08/21 12:35:46;;;;;;;24.55;5.32;;;;;;;35.49;48.92;97466.88;5006422;28;20069;-72
2022/08/21 12:39:09;;;;;;;16.92;6.05;;;;;;;35.70;47.61;97461.59;5006370;28;20140;-71
2022/08/21 12:41:53;;;;;;;19.85;5.72;;;;;;;35.70;48.14;97462.38;5006222;28;20495;-72
2022/08/21 12:45:00;;;;;;;16.73;7.00;;;;;;;35.77;50.15;97464.28;5006355;28;20046;-71
2022/08/21 12:47:51;;;;;;;20.65;6.53;;;;;;;35.54;48.88;97474.03;5006092;28;20537;-72
2022/08/21 12:50:56;;;;;;;24.92;6.30;;;;;;;35.49;48.06;97471.69;4989075;28;20057;-72
2022/08/21 12:53:58;;;;;;;28.20;6.50;;;;;;;35.55;48.62;97475.63;5008513;28;20156;-72
2022/08/21 12:57:09;;;;;;;17.48;7.70;;;;;;;35.61;47.82;97473.97;5019389;28;20061;-72
2022/08/21 12:59:46;;;;;;;18.20;6.15;;;;;;;35.46;50.42;97481.66;5026412;28;20492;-71
2022/08/21 13:02:44;;;;;;;20.35;6.68;;;;;;;35.06;50.44;97480.31;4312629;28;10001032;-71
2022/08/21 13:05:42;;;;;;;19.27;6.22;;;;;;;35.10;50.38;97487.47;4979595;28;20041;-71
2022/08/21 13:08:41;;;;;;;18.23;6.55;;;;;;;35.20;49.79;97490.63;4995119;28;20053;-73
2022/08/21 13:11:32;;;;;;;16.73;7.30;;;;;;;35.08;50.88;97497.44;5002779;28;20064;-72
2022/08/21 13:14:26;;;;;;;15.73;6.75;;;;;;;34.92;50.78;97489.56;5005287;28;20176;-71
2022/08/21 13:17:33;;;;;;;21.45;7.05;;;;;;;35.12;51.60;97495.41;5023019;28;20045;-72
2022/08/21 13:20:32;;;;;;;19.67;6.78;;;;;;;35.09;51.87;97499.81;4990544;28;20133;-73
2022/08/21 13:23:32;;;;;;;22.67;7.90;;;;;;;35.02;51.57;97496.28;5002922;28;20109;-72
2022/08/21 13:26:20;;;;;;;24.27;8.77;;;;;;;34.85;53.27;97501.56;5004456;28;20053;-72
2022/08/21 13:29:12;;;;;;;22.48;8.38;;;;;;;34.90;52.57;97497.53;5003884;28;20484;-72
2022/08/21 13:32:06;;;;;;;25.52;8.05;;;;;;;34.85;52.16;97501.56;5022700;28;20042;-73
2022/08/21 13:34:55;;;;;;;21.63;8.65;;;;;;;34.82;53.45;97496.78;5019692;28;20460;-72
2022/08/21 13:37:47;;;;;;;21.35;10.23;;;;;;;34.65;52.92;97500.41;5016255;28;20050;-71
2022/08/21 13:40:40;;;;;;;21.65;7.95;;;;;;;34.67;54.17;97504.41;4992481;28;20046;-71
2022/08/21 13:43:33;;;;;;;17.35;8.77;;;;;;;34.51;54.74;97510.41;5005983;28;20046;-72
2022/08/21 13:46:18;;;;;;;23.50;8.40;;;;;;;34.69;53.70;97509.56;5002896;28;20046;-70
2022/08/21 13:49:09;;;;;;;20.15;8.73;;;;;;;34.59;54.53;97505.59;5005818;28;20042;-70
2022/08/21 13:51:51;;;;;;;22.42;8.25;;;;;;;34.55;54.45;97515.16;5003985;28;20060;-71
2022/08/21 13:54:46;;;;;;;19.70;9.30;;;;;;;34.44;55.15;97504.84;4989614;28;20042;-73
2022/08/21 13:57:32;;;;;;;17.55;8.32;;;;;;;34.47;56.27;97511.59;5015922;28;20049;-74
2022/08/21 14:00:36;;;;;;;18.92;8.32;;;;;;;34.43;55.38;97522.78;5024195;28;20073;-71
2022/08/21 14:03:42;;;;;;;24.33;7.93;;;;;;;34.43;55.66;97521.97;4662451;28;10001086;-71
2022/08/21 14:06:42;;;;;;;22.05;8.85;;;;;;;34.30;56.65;97532.75;5013627;28;20064;-71
2022/08/21 14:09:48;;;;;;;20.17;8.85;;;;;;;34.34;56.59;97533.53;4990229;28;20124;-72
2022/08/21 14:12:50;;;;;;;20.27;8.45;;;;;;;34.30;56.86;97532.75;4999804;28;20754;-71
2022/08/21 14:15:29;;;;;;;32.40;8.68;;;;;;;34.34;57.08;97522.41;4999461;28;20065;-72
2022/08/21 14:18:19;;;;;;;21.85;8.60;;;;;;;34.35;57.37;97523.19;5015767;28;20061;-71